Time;durP1;ratioP1;P1;durP2;ratioP2;P2;SDS_P1;SDS_P2;PMS_P1;PMS_P2;Temp;Humidity;BMP_temperature;BMP_pressure;BME280_temperature;BME280_humidity;BME280_pressure;Samples;Min_cycle;Max_cycle;Signal;HPM_P1;HPM_P2
2024/01/07 00:00:31;;;;;;;;;;;;;;;19.22;44.28;101284.88;2057118;28;5994;-80
2024/01/07 00:01:32;;;;;;;;;;;;;;;19.23;44.34;101300.72;2060215;28;2291;-81
2024/01/07 00:02:34;;;;;;;;;;;;;;;19.22;44.37;101293.50;2062178;28;1587;-81
2024/01/07 00:03:35;;;;;;;;;;;;;;;19.24;44.29;101298.59;2062548;28;2043;-81
2024/01/07 00:04:37;;;;;;;;;;;;;;;19.22;44.35;101296.38;2060497;28;2114;-67
2024/01/07 00:05:38;;;;;;;;;;;;;;;19.22;44.48;101296.38;2057690;28;2166;-73
2024/01/07 00:06:40;;;;;;;;;;;;;;;19.21;44.36;101289.13;2061478;28;1703;-73
2024/01/07 00:07:41;;;;;;;;;;;;;;;19.22;44.27;101295.63;2056839;28;1960;-66
2024/01/07 00:08:42;;;;;;;;;;;;;;;19.21;44.22;101291.25;2058769;28;2255;-67
2024/01/07 00:09:44;;;;;;;;;;;;;;;19.21;44.23;101294.84;2061638;28;2268;-67
2024/01/07 00:10:45;;;;;;;;;;;;;;;19.21;44.26;101300.59;2061455;28;1865;-67
2024/01/07 00:11:47;;;;;;;;;;;;;;;19.21;44.23;101302.72;2058518;28;2289;-67
2024/01/07 00:12:49;;;;;;;;;;;;;;;19.20;44.39;101296.25;2060492;28;2356;-67
2024/01/07 00:13:51;;;;;;;;;;;;;;;19.19;44.31;101294.72;2059139;28;2218;-67
2024/01/07 00:14:52;;;;;;;;;;;;;;;19.20;44.37;101293.38;2056969;28;2111;-67
2024/01/07 00:15:55;;;;;;;;;;;;;;;19.19;44.28;101305.47;2061063;28;2273;-67
2024/01/07 00:16:57;;;;;;;;;;;;;;;19.18;44.28;101293.25;2058697;28;2376;-67
2024/01/07 00:17:58;;;;;;;;;;;;;;;19.18;44.21;101301.88;2060433;28;1771;-67
2024/01/07 00:19:00;;;;;;;;;;;;;;;19.18;44.30;101301.88;2058472;28;2094;-67
2024/01/07 00:20:02;;;;;;;;;;;;;;;19.19;44.22;101306.22;2058563;28;2330;-67
2024/01/07 00:21:03;;;;;;;;;;;;;;;19.18;44.36;101301.88;2060612;28;1707;-67
2024/01/07 00:22:04;;;;;;;;;;;;;;;19.18;44.22;101301.13;2060502;28;2310;-67
2024/01/07 00:23:06;;;;;;;;;;;;;;;19.17;44.21;101309.00;2060166;28;2074;-67
2024/01/07 00:24:07;;;;;;;;;;;;;;;19.17;44.26;101303.25;2061608;28;1908;-67
2024/01/07 00:25:09;;;;;;;;;;;;;;;19.19;44.26;101309.09;2061254;28;2553;-67
2024/01/07 00:26:10;;;;;;;;;;;;;;;19.19;44.37;101302.59;2059515;28;2153;-67
2024/01/07 00:27:12;;;;;;;;;;;;;;;19.18;44.25;101310.47;2057334;28;2001;-67
2024/01/07 00:28:13;;;;;;;;;;;;;;;19.19;44.18;101309.09;2061675;28;1910;-67
2024/01/07 00:29:14;;;;;;;;;;;;;;;19.18;44.22;101304.75;2060424;28;2278;-67
2024/01/07 00:30:16;;;;;;;;;;;;;;;19.19;44.17;101314.84;2057999;28;7279;-67
2024/01/07 00:31:17;;;;;;;;;;;;;;;19.20;44.30;101321.34;2060442;28;2082;-67
2024/01/07 00:32:19;;;;;;;;;;;;;;;19.20;44.19;101310.59;2056645;28;2289;-67
2024/01/07 00:33:20;;;;;;;;;;;;;;;19.21;44.25;101322.81;2062199;28;1735;-67
2024/01/07 00:34:22;;;;;;;;;;;;;;;19.20;44.19;101322.09;2057833;28;2181;-67
2024/01/07 00:35:23;;;;;;;;;;;;;;;19.21;44.11;101312.09;2060858;28;1808;-67
2024/01/07 00:36:25;;;;;;;;;;;;;;;19.21;44.19;101317.09;2058097;28;2094;-67
2024/01/07 00:37:26;;;;;;;;;;;;;;;19.20;44.17;101324.94;2060888;28;2150;-67
2024/01/07 00:38:28;;;;;;;;;;;;;;;19.20;44.19;101327.81;2058252;28;2168;-67
2024/01/07 00:39:29;;;;;;;;;;;;;;;19.20;44.26;101327.81;2062302;28;2324;-67
2024/01/07 00:40:30;;;;;;;;;;;;;;;19.20;44.17;101333.56;2063256;28;1751;-67
2024/01/07 00:41:32;;;;;;;;;;;;;;;19.21;44.09;101334.31;2060190;28;1706;-67
2024/01/07 00:42:33;;;;;;;;;;;;;;;19.19;44.14;101337.78;2059737;28;1718;-67
2024/01/07 00:43:35;;;;;;;;;;;;;;;19.18;44.08;101339.19;2057942;28;2301;-67
2024/01/07 00:44:37;;;;;;;;;;;;;;;19.17;44.08;101334.84;2063304;28;1706;-67
2024/01/07 00:45:38;;;;;;;;;;;;;;;19.18;44.05;101342.06;2055614;28;2046;-67
2024/01/07 00:46:39;;;;;;;;;;;;;;;19.19;44.14;101343.53;2061015;28;2234;-67
2024/01/07 00:47:41;;;;;;;;;;;;;;;19.17;44.16;101340.56;2060606;28;2085;-67
2024/01/07 00:48:42;;;;;;;;;;;;;;;19.17;44.07;101346.31;2061300;28;1975;-67
2024/01/07 00:49:44;;;;;;;;;;;;;;;19.18;44.04;101350.66;2059582;28;2062;-67
2024/01/07 00:50:46;;;;;;;;;;;;;;;19.18;44.05;101347.06;2059829;28;2289;-67
2024/01/07 00:51:47;;;;;;;;;;;;;;;19.18;44.14;101352.81;2062813;28;1678;-67
2024/01/07 00:52:48;;;;;;;;;;;;;;;19.17;44.03;101352.06;2062387;28;1665;-67
2024/01/07 00:53:50;;;;;;;;;;;;;;;19.17;44.09;101346.31;2061351;28;2141;-67
2024/01/07 00:54:51;;;;;;;;;;;;;;;19.16;44.05;101350.56;2056930;28;2254;-67
2024/01/07 00:55:53;;;;;;;;;;;;;;;19.15;44.14;101354.81;2056656;28;2428;-67
2024/01/07 00:56:54;;;;;;;;;;;;;;;19.17;44.08;101357.81;2061010;28;1953;-67
2024/01/07 00:57:55;;;;;;;;;;;;;;;19.17;44.13;101351.28;2061208;28;1644;-67
2024/01/07 00:58:57;;;;;;;;;;;;;;;19.17;43.99;101357.81;2061846;28;2183;-67
2024/01/07 00:59:59;;;;;;;;;;;;;;;19.18;43.94;101355.69;2059823;28;1933;-67
2024/01/07 01:01:00;;;;;;;;;;;;;;;19.17;44.11;101352.06;2061744;28;7154;-67
2024/01/07 01:02:02;;;;;;;;;;;;;;;19.17;44.11;101352.06;2059372;28;1928;-67
2024/01/07 01:03:03;;;;;;;;;;;;;;;19.18;44.08;101352.81;2059051;28;1551;-67
2024/01/07 01:04:05;;;;;;;;;;;;;;;19.18;44.03;101365.03;2061611;28;1987;-67
2024/01/07 01:05:07;;;;;;;;;;;;;;;19.18;44.08;101365.03;2060447;28;2412;-67
2024/01/07 01:06:08;;;;;;;;;;;;;;;19.18;44.11;101359.28;2056016;28;2132;-67
2024/01/07 01:07:10;;;;;;;;;;;;;;;19.19;44.05;101357.16;2060190;28;2047;-67
2024/01/07 01:08:11;;;;;;;;;;;;;;;19.19;44.06;101360.03;2057912;28;2161;-68
2024/01/07 01:09:12;;;;;;;;;;;;;;;19.19;43.98;101368.63;2058017;28;2073;-67
2024/01/07 01:10:17;;;;;;;;;;;;;;;19.19;43.97;101372.25;2061636;28;1571;-67
2024/01/07 01:11:19;;;;;;;;;;;;;;;19.19;43.97;101371.50;2060195;28;2150;-67
2024/01/07 01:12:20;;;;;;;;;;;;;;;19.19;44.05;101374.38;2058282;28;2078;-67
2024/01/07 01:13:22;;;;;;;;;;;;;;;19.20;43.99;101378.75;2059684;28;1976;-67
2024/01/07 01:14:23;;;;;;;;;;;;;;;19.20;44.09;101364.41;2059989;28;2294;-67
2024/01/07 01:15:24;;;;;;;;;;;;;;;19.19;44.02;101378.00;2058107;28;2022;-67
2024/01/07 01:16:26;;;;;;;;;;;;;;;19.19;44.09;101378.00;2059317;28;2369;-67
2024/01/07 01:17:27;;;;;;;;;;;;;;;19.19;44.09;101377.25;2061906;28;1897;-67
2024/01/07 01:18:29;;;;;;;;;;;;;;;19.20;44.00;101378.75;2060890;28;1631;-67
2024/01/07 01:19:30;;;;;;;;;;;;;;;19.19;44.08;101380.13;2057704;28;2078;-67
2024/01/07 01:20:32;;;;;;;;;;;;;;;19.18;44.12;101375.78;2059553;28;1750;-67
2024/01/07 01:21:33;;;;;;;;;;;;;;;19.18;44.03;101372.91;2059724;28;1785;-67
2024/01/07 01:22:34;;;;;;;;;;;;;;;19.17;44.01;101375.03;2057016;28;2027;-68
2024/01/07 01:23:36;;;;;;;;;;;;;;;19.17;44.00;101386.50;2061482;28;1587;-67
2024/01/07 01:24:37;;;;;;;;;;;;;;;19.16;44.01;101385.00;2058766;28;2312;-67
2024/01/07 01:25:39;;;;;;;;;;;;;;;19.17;44.01;101380.00;2058511;28;2011;-67
2024/01/07 01:26:41;;;;;;;;;;;;;;;19.16;44.04;101390.75;2059326;28;2243;-67
2024/01/07 01:27:42;;;;;;;;;;;;;;;19.15;44.12;101383.50;2057836;28;1671;-68
2024/01/07 01:28:44;;;;;;;;;;;;;;;19.14;44.07;101382.00;2060525;28;2109;-68
2024/01/07 01:29:45;;;;;;;;;;;;;;;19.14;44.05;101387.75;2060281;28;2186;-68
2024/01/07 01:30:46;;;;;;;;;;;;;;;19.15;44.02;101380.66;2059027;28;6266;-67
2024/01/07 01:31:48;;;;;;;;;;;;;;;19.15;43.93;101385.63;2060131;28;1916;-67
2024/01/07 01:32:49;;;;;;;;;;;;;;;19.15;44.04;101389.25;2058988;28;1691;-67
2024/01/07 01:33:51;;;;;;;;;;;;;;;19.15;43.96;101400.75;2059666;28;1845;-67
2024/01/07 01:34:52;;;;;;;;;;;;;;;19.15;43.98;101394.22;2058045;28;2238;-67
2024/01/07 01:35:54;;;;;;;;;;;;;;;19.15;43.96;101397.09;2056585;28;2044;-68
2024/01/07 01:36:55;;;;;;;;;;;;;;;19.14;43.84;101396.34;2061271;28;2327;-68
2024/01/07 01:37:57;;;;;;;;;;;;;;;19.15;43.89;101395.00;2060353;28;1849;-68
2024/01/07 01:38:58;;;;;;;;;;;;;;;19.15;43.95;101400.75;2058170;28;2003;-67
2024/01/07 01:39:59;;;;;;;;;;;;;;;19.16;43.83;101395.75;2060499;28;1839;-67
2024/01/07 01:41:01;;;;;;;;;;;;;;;19.16;43.85;101399.34;2058410;28;2232;-67
2024/01/07 01:42:02;;;;;;;;;;;;;;;19.17;44.01;101403.72;2058347;28;1600;-67
2024/01/07 01:43:04;;;;;;;;;;;;;;;19.16;44.00;101402.22;2058147;28;2182;-67
2024/01/07 01:44:05;;;;;;;;;;;;;;;19.17;43.98;101409.47;2062572;28;1948;-67
2024/01/07 01:45:07;;;;;;;;;;;;;;;19.18;43.97;101410.97;2057143;28;2396;-68
2024/01/07 01:46:08;;;;;;;;;;;;;;;19.17;43.94;101403.72;2058790;28;2256;-68
2024/01/07 01:47:10;;;;;;;;;;;;;;;19.18;43.94;101410.22;2061170;28;2160;-67
2024/01/07 01:48:11;;;;;;;;;;;;;;;19.18;43.99;101404.47;2060296;28;1881;-68
2024/01/07 01:49:13;;;;;;;;;;;;;;;19.18;44.00;101416.72;2062548;28;1971;-68
2024/01/07 01:50:14;;;;;;;;;;;;;;;19.18;43.90;101419.56;2059561;28;2038;-67
2024/01/07 01:51:16;;;;;;;;;;;;;;;19.18;43.96;101416.72;2059172;28;2258;-67
2024/01/07 01:52:17;;;;;;;;;;;;;;;19.17;43.90;101417.31;2060182;28;1659;-67
2024/01/07 01:53:18;;;;;;;;;;;;;;;19.18;43.91;101427.44;2060677;28;1682;-67
2024/01/07 01:54:20;;;;;;;;;;;;;;;19.18;43.96;101428.19;2059589;28;1640;-67
2024/01/07 01:55:22;;;;;;;;;;;;;;;19.16;43.97;101413.72;2061543;28;2298;-67
2024/01/07 01:56:23;;;;;;;;;;;;;;;19.17;43.98;101415.22;2063208;28;1989;-67
2024/01/07 01:57:24;;;;;;;;;;;;;;;19.16;43.93;101413.72;2049989;28;2260;-68
2024/01/07 01:58:26;;;;;;;;;;;;;;;19.16;43.97;101424.44;2053956;28;1590;-68
2024/01/07 01:59:27;;;;;;;;;;;;;;;19.16;43.99;101413.72;2060850;28;2153;-68
2024/01/07 02:00:29;;;;;;;;;;;;;;;19.16;44.03;101418.72;2055662;28;6162;-67
2024/01/07 02:01:31;;;;;;;;;;;;;;;19.15;44.01;101429.44;2066742;28;2344;-67
2024/01/07 02:02:34;;;;;;;;;;;;;;;19.14;44.03;101422.19;2062667;28;1658;-67
2024/01/07 02:03:36;;;;;;;;;;;;;;;19.15;44.00;101429.44;2060732;28;1565;-67
2024/01/07 02:04:37;;;;;;;;;;;;;;;19.15;43.95;101434.41;2059972;28;2261;-67
2024/01/07 02:05:39;;;;;;;;;;;;;;;19.14;43.97;101430.81;2061046;28;2019;-67
2024/01/07 02:06:40;;;;;;;;;;;;;;;19.14;43.96;101439.41;2062495;28;2242;-67
2024/01/07 02:07:41;;;;;;;;;;;;;;;19.14;43.98;101422.19;2061673;28;2824;-68
2024/01/07 02:08:43;;;;;;;;;;;;;;;19.13;43.93;101429.31;2061709;28;2109;-67
2024/01/07 02:09:44;;;;;;;;;;;;;;;19.14;44.01;101433.69;2058689;28;1918;-67
2024/01/07 02:10:46;;;;;;;;;;;;;;;19.13;43.91;101432.19;2062495;28;2640;-67
2024/01/07 02:12:00;;;;;;;;;;;;;;;19.14;43.99;101433.69;2060898;28;1651;-67
2024/01/07 02:13:01;;;;;;;;;;;;;;;19.15;44.05;101428.69;2058566;28;1565;-67
2024/01/07 02:14:03;;;;;;;;;;;;;;;19.16;43.97;101430.19;2063358;28;1552;-67
2024/01/07 02:15:04;;;;;;;;;;;;;;;19.16;43.91;101435.94;2060323;28;2258;-68
2024/01/07 02:16:06;;;;;;;;;;;;;;;19.16;43.83;101427.31;2059977;28;2365;-68
2024/01/07 02:17:07;;;;;;;;;;;;;;;19.15;43.98;101435.19;2063979;28;2187;-67
2024/01/07 02:18:08;;;;;;;;;;;;;;;19.16;44.04;101430.19;2061431;28;2274;-68
2024/01/07 02:19:10;;;;;;;;;;;;;;;19.16;43.94;101436.69;2061746;28;1964;-67
2024/01/07 02:20:11;;;;;;;;;;;;;;;19.16;43.86;101433.81;2062941;28;2258;-68
2024/01/07 02:21:13;;;;;;;;;;;;;;;19.16;43.90;101435.94;2062134;28;2510;-68
2024/01/07 02:22:14;;;;;;;;;;;;;;;19.16;43.85;101430.94;2061783;28;1801;-67
2024/01/07 02:23:16;;;;;;;;;;;;;;;19.16;43.84;101436.69;2064006;28;2058;-67
2024/01/07 02:24:17;;;;;;;;;;;;;;;19.17;43.82;101431.69;2058992;28;2328;-67
2024/01/07 02:25:19;;;;;;;;;;;;;;;19.17;43.85;101432.44;2058607;28;2560;-67
2024/01/07 02:26:20;;;;;;;;;;;;;;;19.17;43.90;101432.44;2060684;28;2194;-67
2024/01/07 02:27:21;;;;;;;;;;;;;;;19.17;43.82;101426.69;2058679;28;1956;-67
2024/01/07 02:28:23;;;;;;;;;;;;;;;19.19;43.85;101429.69;2060008;28;1454;-67
2024/01/07 02:29:24;;;;;;;;;;;;;;;19.18;43.86;101436.81;2058152;28;2081;-67
2024/01/07 02:30:27;;;;;;;;;;;;;;;19.19;43.78;101440.41;2059098;28;6364;-67
2024/01/07 02:31:28;;;;;;;;;;;;;;;19.19;43.90;101441.16;2060648;28;2242;-67
2024/01/07 02:32:34;;;;;;;;;;;;;;;19.19;43.89;101423.94;2062089;28;2082;-67
2024/01/07 02:33:35;;;;;;;;;;;;;;;19.19;43.91;101438.28;2059993;28;2039;-68
2024/01/07 02:34:37;;;;;;;;;;;;;;;19.19;43.77;101441.16;2061575;28;2234;-67
2024/01/07 02:35:39;;;;;;;;;;;;;;;19.19;43.84;101435.41;2059851;28;2202;-68
2024/01/07 02:36:40;;;;;;;;;;;;;;;19.19;43.87;101438.28;2061556;28;1611;-67
2024/01/07 02:37:42;;;;;;;;;;;;;;;19.18;43.89;101442.53;2058231;28;1978;-67
2024/01/07 02:38:43;;;;;;;;;;;;;;;19.17;43.90;101440.28;2057453;28;2224;-67
2024/01/07 02:39:44;;;;;;;;;;;;;;;19.18;43.94;101441.81;2061456;28;1714;-67
2024/01/07 02:41:00;;;;;;;;;;;;;;;19.16;43.81;101428.06;2062340;28;1999;-67
2024/01/07 02:42:01;;;;;;;;;;;;;;;19.17;43.84;101437.41;2061506;28;1619;-68
2024/01/07 02:43:03;;;;;;;;;;;;;;;19.16;43.90;101433.81;2064270;28;2133;-68
2024/01/07 02:44:04;;;;;;;;;;;;;;;19.16;43.98;101438.81;2062602;28;2374;-68
2024/01/07 02:45:06;;;;;;;;;;;;;;;19.16;43.94;101447.41;2060723;28;2320;-68
2024/01/07 02:46:07;;;;;;;;;;;;;;;19.15;43.89;101445.91;2061776;28;2293;-68
2024/01/07 02:47:09;;;;;;;;;;;;;;;19.14;43.90;101439.41;2063660;28;1560;-68
2024/01/07 02:48:10;;;;;;;;;;;;;;;19.16;43.94;101439.53;2059874;28;1868;-67
2024/01/07 02:49:12;;;;;;;;;;;;;;;19.15;43.90;101451.66;2059127;28;2134;-67
2024/01/07 02:50:14;;;;;;;;;;;;;;;19.16;43.87;101456.78;2059715;28;2498;-68
2024/01/07 02:51:15;;;;;;;;;;;;;;;19.16;43.90;101458.91;2057733;28;2089;-67
2024/01/07 02:52:17;;;;;;;;;;;;;;;19.15;43.81;101458.16;2061951;28;2297;-67
2024/01/07 02:53:18;;;;;;;;;;;;;;;19.15;43.77;101452.41;2062005;28;1540;-67
2024/01/07 02:54:19;;;;;;;;;;;;;;;19.15;43.85;101452.41;2060647;28;2233;-67
2024/01/07 02:55:21;;;;;;;;;;;;;;;19.16;43.77;101453.16;2061717;28;2092;-68
2024/01/07 02:56:22;;;;;;;;;;;;;;;19.16;43.87;101458.91;2059098;28;1602;-67
2024/01/07 02:57:23;;;;;;;;;;;;;;;19.15;43.86;101461.03;2060285;28;1557;-67
2024/01/07 02:58:25;;;;;;;;;;;;;;;19.16;43.88;101465.38;2060962;28;1581;-67
2024/01/07 02:59:26;;;;;;;;;;;;;;;19.16;43.84;101459.66;2060909;28;2280;-67
2024/01/07 03:00:28;;;;;;;;;;;;;;;19.17;43.84;101466.91;2060371;28;6150;-67
2024/01/07 03:01:29;;;;;;;;;;;;;;;19.17;43.72;101466.13;2061613;28;1941;-67
2024/01/07 03:02:31;;;;;;;;;;;;;;;19.17;43.92;101469.00;2063640;28;1580;-68
2024/01/07 03:03:32;;;;;;;;;;;;;;;19.17;43.69;101458.28;2063272;28;1538;-67
2024/01/07 03:04:33;;;;;;;;;;;;;;;19.18;43.78;101468.38;2059609;28;2235;-67
2024/01/07 03:05:35;;;;;;;;;;;;;;;19.17;43.78;101461.16;2059965;28;1488;-68
2024/01/07 03:06:36;;;;;;;;;;;;;;;19.18;43.74;101468.38;2060498;28;2104;-67
2024/01/07 03:07:38;;;;;;;;;;;;;;;19.18;43.76;101476.25;2058864;28;2109;-67
2024/01/07 03:08:40;;;;;;;;;;;;;;;19.17;43.75;101458.28;2060882;28;1551;-67
2024/01/07 03:09:41;;;;;;;;;;;;;;;19.17;43.61;101466.91;2057090;28;1938;-67
2024/01/07 03:10:44;;;;;;;;;;;;;;;19.18;43.87;101467.63;2049542;28;2167;-67
2024/01/07 03:11:46;;;;;;;;;;;;;;;19.16;43.70;101465.38;2052403;28;2203;-67
2024/01/07 03:12:47;;;;;;;;;;;;;;;19.16;43.75;101476.88;2061692;28;1592;-67
2024/01/07 03:13:49;;;;;;;;;;;;;;;19.16;43.76;101471.13;2062987;28;1512;-67
2024/01/07 03:14:50;;;;;;;;;;;;;;;19.16;43.73;101470.38;2060940;28;2357;-68
2024/01/07 03:15:51;;;;;;;;;;;;;;;19.15;43.79;101469.63;2056984;28;2070;-68
2024/01/07 03:16:53;;;;;;;;;;;;;;;19.15;43.75;101468.88;2060539;28;1738;-68
2024/01/07 03:17:54;;;;;;;;;;;;;;;19.15;43.73;101469.63;2060667;28;2231;-68
2024/01/07 03:18:56;;;;;;;;;;;;;;;19.14;43.88;101468.13;2057111;28;1678;-68
2024/01/07 03:19:57;;;;;;;;;;;;;;;19.14;43.88;101473.88;2059705;28;2117;-67
2024/01/07 03:20:59;;;;;;;;;;;;;;;19.13;43.79;101463.78;2060698;28;2006;-67
2024/01/07 03:22:00;;;;;;;;;;;;;;;19.13;43.82;101466.66;2062462;28;2475;-67
2024/01/07 03:23:02;;;;;;;;;;;;;;;19.14;43.80;101473.88;2063283;28;1615;-67
2024/01/07 03:24:03;;;;;;;;;;;;;;;19.13;43.78;101478.13;2050848;28;2139;-67
2024/01/07 03:25:05;;;;;;;;;;;;;;;19.13;43.90;101483.13;2053389;28;2296;-67
2024/01/07 03:26:06;;;;;;;;;;;;;;;19.14;43.82;101479.63;2059776;28;1940;-67
2024/01/07 03:27:08;;;;;;;;;;;;;;;19.12;43.84;101490.97;2057342;28;2078;-67
2024/01/07 03:28:09;;;;;;;;;;;;;;;19.12;43.89;101476.63;2058833;28;2405;-67
2024/01/07 03:29:10;;;;;;;;;;;;;;;19.12;43.80;101481.63;2061386;28;2056;-67
2024/01/07 03:30:12;;;;;;;;;;;;;;;19.11;43.93;101489.47;2058974;28;6270;-67
2024/01/07 03:31:14;;;;;;;;;;;;;;;19.11;44.07;101491.63;2063263;28;2368;-67
2024/01/07 03:32:16;;;;;;;;;;;;;;;19.10;43.81;101490.84;2056774;28;1715;-68
2024/01/07 03:33:18;;;;;;;;;;;;;;;19.09;43.81;101489.34;2059978;28;1634;-68
2024/01/07 03:34:19;;;;;;;;;;;;;;;19.10;43.84;101490.84;2057724;28;2122;-67
2024/01/07 03:35:23;;;;;;;;;;;;;;;19.10;43.83;101490.84;2061286;28;2301;-67
2024/01/07 03:36:25;;;;;;;;;;;;;;;19.09;43.87;101495.09;2061155;28;1867;-67
2024/01/07 03:37:26;;;;;;;;;;;;;;;19.10;43.86;101502.31;2059348;28;1711;-67
2024/01/07 03:38:28;;;;;;;;;;;;;;;19.10;43.81;101508.06;2059082;28;2141;-67
2024/01/07 03:39:31;;;;;;;;;;;;;;;19.09;43.86;101509.44;2062693;28;1575;-67
2024/01/07 03:40:33;;;;;;;;;;;;;;;19.10;43.80;101501.59;2063885;28;1593;-67
2024/01/07 03:41:34;;;;;;;;;;;;;;;19.09;43.76;101505.84;2062608;28;1726;-68
2024/01/07 03:42:36;;;;;;;;;;;;;;;19.10;43.73;101501.59;2060054;28;2123;-68
2024/01/07 03:43:37;;;;;;;;;;;;;;;19.09;43.72;101512.31;2059965;28;2263;-68
2024/01/07 03:44:38;;;;;;;;;;;;;;;19.09;43.61;101506.59;2058155;28;2258;-67
2024/01/07 03:45:41;;;;;;;;;;;;;;;19.10;43.74;101505.19;2057892;28;2277;-67
2024/01/07 03:46:42;;;;;;;;;;;;;;;19.10;43.77;101502.31;2060017;28;2225;-68
2024/01/07 03:47:43;;;;;;;;;;;;;;;19.11;43.75;101503.84;2055994;28;1777;-67
2024/01/07 03:48:45;;;;;;;;;;;;;;;19.12;43.72;101507.44;2059075;28;2159;-67
2024/01/07 03:49:47;;;;;;;;;;;;;;;19.13;43.69;101511.84;2060003;28;2142;-67
2024/01/07 03:50:49;;;;;;;;;;;;;;;19.13;43.52;101511.84;2061272;28;1924;-67
2024/01/07 03:51:50;;;;;;;;;;;;;;;19.13;43.52;101506.84;2056622;28;2075;-67
2024/01/07 03:52:52;;;;;;;;;;;;;;;19.14;43.59;101514.06;2060216;28;2069;-67
2024/01/07 03:53:53;;;;;;;;;;;;;;;19.14;43.70;101514.06;2058127;28;2299;-67
2024/01/07 03:54:54;;;;;;;;;;;;;;;19.15;43.66;101509.06;2060960;28;2289;-67
2024/01/07 03:55:56;;;;;;;;;;;;;;;19.14;43.58;101514.06;2062680;28;1870;-67
2024/01/07 03:56:57;;;;;;;;;;;;;;;19.15;43.48;101515.56;2058311;28;1730;-67
2024/01/07 03:57:58;;;;;;;;;;;;;;;19.15;43.63;101504.09;2057195;28;2161;-67
2024/01/07 03:59:00;;;;;;;;;;;;;;;19.16;43.57;101517.06;2063948;28;1829;-67
2024/01/07 04:00:01;;;;;;;;;;;;;;;19.17;43.59;101509.97;2060122;28;2102;-67
2024/01/07 04:01:03;;;;;;;;;;;;;;;19.17;43.63;101509.19;2054645;28;6480;-67
2024/01/07 04:02:04;;;;;;;;;;;;;;;19.18;43.63;101519.31;2063321;28;1687;-67
2024/01/07 04:03:06;;;;;;;;;;;;;;;19.17;43.51;101512.06;2061128;28;1679;-67
2024/01/07 04:04:07;;;;;;;;;;;;;;;19.19;43.58;101515.81;2061199;28;2102;-67
2024/01/07 04:05:09;;;;;;;;;;;;;;;19.18;43.49;101514.31;2061954;28;2074;-68
2024/01/07 04:06:10;;;;;;;;;;;;;;;19.19;43.67;101521.56;2061683;28;1995;-68
2024/01/07 04:07:12;;;;;;;;;;;;;;;19.18;43.58;101528.69;2059245;28;2239;-67
2024/01/07 04:08:15;;;;;;;;;;;;;;;19.19;43.49;101527.28;2058458;28;2069;-67
2024/01/07 04:09:16;;;;;;;;;;;;;;;19.19;43.51;101532.28;2060197;28;2192;-67
2024/01/07 04:10:18;;;;;;;;;;;;;;;19.20;43.46;101531.69;2062543;28;1972;-68
2024/01/07 04:11:19;;;;;;;;;;;;;;;19.21;43.49;101530.28;2060143;28;1683;-67
2024/01/07 04:12:21;;;;;;;;;;;;;;;19.20;43.51;101528.81;2062686;28;1885;-67
2024/01/07 04:13:22;;;;;;;;;;;;;;;19.21;43.56;101541.03;2059217;28;2107;-67
2024/01/07 04:14:24;;;;;;;;;;;;;;;19.22;43.53;101542.53;2057721;28;2034;-67
2024/01/07 04:15:25;;;;;;;;;;;;;;;19.22;43.47;101545.41;2058018;28;2066;-67
2024/01/07 04:16:26;;;;;;;;;;;;;;;19.24;43.56;101545.50;2062092;28;1909;-67
2024/01/07 04:17:28;;;;;;;;;;;;;;;19.23;43.40;101544.78;2057780;28;2398;-67
2024/01/07 04:18:29;;;;;;;;;;;;;;;19.22;43.48;101537.53;2061274;28;1690;-68
2024/01/07 04:19:31;;;;;;;;;;;;;;;19.23;43.52;101544.78;2060706;28;2019;-67
2024/01/07 04:20:33;;;;;;;;;;;;;;;19.24;43.52;101545.50;2058208;28;2140;-68
2024/01/07 04:21:35;;;;;;;;;;;;;;;19.24;43.49;101551.25;2065169;28;1881;-67
2024/01/07 04:22:37;;;;;;;;;;;;;;;19.25;43.48;101553.53;2059268;28;2065;-67
2024/01/07 04:23:38;;;;;;;;;;;;;;;19.25;43.56;101553.53;2060952;28;2129;-67
2024/01/07 04:24:42;;;;;;;;;;;;;;;19.26;43.54;101545.66;2063562;28;2060;-67
2024/01/07 04:25:45;;;;;;;;;;;;;;;19.26;43.47;101554.25;2060645;28;2287;-67
2024/01/07 04:26:46;;;;;;;;;;;;;;;19.26;43.43;101554.25;2058513;28;2321;-67
2024/01/07 04:27:47;;;;;;;;;;;;;;;19.27;43.45;101555.78;2058148;28;2051;-67
2024/01/07 04:28:49;;;;;;;;;;;;;;;19.27;43.55;101558.66;2057713;28;2146;-68
2024/01/07 04:29:50;;;;;;;;;;;;;;;19.28;43.56;101563.00;2062004;28;1646;-68
2024/01/07 04:30:52;;;;;;;;;;;;;;;19.28;43.55;101562.25;2059390;28;6089;-67
2024/01/07 04:31:53;;;;;;;;;;;;;;;19.27;43.46;101557.91;2059874;28;2059;-67
2024/01/07 04:32:55;;;;;;;;;;;;;;;19.28;43.48;101565.13;2059754;28;1619;-67
2024/01/07 04:33:56;;;;;;;;;;;;;;;19.28;43.50;101562.25;2061151;28;1774;-67
2024/01/07 04:34:58;;;;;;;;;;;;;;;19.29;43.39;101560.88;2057850;28;2270;-68
2024/01/07 04:36:00;;;;;;;;;;;;;;;19.29;43.40;101567.38;2062655;28;2271;-68
2024/01/07 04:37:02;;;;;;;;;;;;;;;19.30;43.38;101565.25;2060948;28;1786;-68
2024/01/07 04:38:03;;;;;;;;;;;;;;;19.30;43.31;101568.88;2060486;28;2200;-68
2024/01/07 04:39:04;;;;;;;;;;;;;;;19.31;43.49;101578.22;2059147;28;2158;-68
2024/01/07 04:40:06;;;;;;;;;;;;;;;19.30;43.64;101568.13;2061658;28;1987;-68
2024/01/07 04:41:08;;;;;;;;;;;;;;;19.31;43.49;101569.63;2058029;28;1853;-67
2024/01/07 04:42:09;;;;;;;;;;;;;;;19.32;43.40;101569.00;2060093;28;2125;-67
2024/01/07 04:43:14;;;;;;;;;;;;;;;19.32;43.45;101565.38;2059431;28;1551;-67
2024/01/07 04:44:15;;;;;;;;;;;;;;;19.31;43.42;101572.50;2060481;28;1782;-67
2024/01/07 04:45:16;;;;;;;;;;;;;;;19.31;43.37;101572.50;2057043;28;2062;-68
2024/01/07 04:46:18;;;;;;;;;;;;;;;19.31;43.53;101573.25;2060327;28;2205;-68
2024/01/07 04:47:33;;;;;;;;;;;;;;;19.32;43.38;101568.25;2060873;28;2218;-68
2024/01/07 04:48:35;;;;;;;;;;;;;;;19.31;43.39;101563.88;2056188;28;2057;-68
2024/01/07 04:49:38;;;;;;;;;;;;;;;19.32;43.41;101569.00;2060532;28;1631;-67
2024/01/07 04:50:40;;;;;;;;;;;;;;;19.32;43.39;101574.75;2059173;28;2067;-67
2024/01/07 04:51:42;;;;;;;;;;;;;;;19.31;43.38;101575.38;2059279;28;2102;-67
2024/01/07 04:52:43;;;;;;;;;;;;;;;19.33;43.41;101576.22;2057979;28;1677;-67
2024/01/07 04:53:45;;;;;;;;;;;;;;;19.34;43.36;101577.00;2057340;28;1834;-67
2024/01/07 04:54:46;;;;;;;;;;;;;;;19.32;43.38;101571.88;2058672;28;1760;-67
2024/01/07 04:55:48;;;;;;;;;;;;;;;19.33;43.35;101581.22;2059094;28;1960;-68
2024/01/07 04:56:49;;;;;;;;;;;;;;;19.33;43.34;101581.22;2062509;28;2290;-68
2024/01/07 04:57:50;;;;;;;;;;;;;;;19.33;43.29;101587.72;2061090;28;2101;-67
2024/01/07 04:58:52;;;;;;;;;;;;;;;19.33;43.29;101584.84;2061907;28;2374;-67
2024/01/07 04:59:53;;;;;;;;;;;;;;;19.34;43.39;101577.00;2058395;28;2432;-67
2024/01/07 05:00:55;;;;;;;;;;;;;;;19.34;43.27;101574.13;2053762;28;6092;-67
2024/01/07 05:01:56;;;;;;;;;;;;;;;19.33;43.44;101576.22;2061102;28;2273;-67
2024/01/07 05:02:58;;;;;;;;;;;;;;;19.34;43.45;101582.75;2061665;28;2262;-67
2024/01/07 05:03:59;;;;;;;;;;;;;;;19.34;43.46;101582.75;2062586;28;1874;-67
2024/01/07 05:05:01;;;;;;;;;;;;;;;19.34;43.39;101577.00;2058132;28;2129;-67
2024/01/07 05:06:03;;;;;;;;;;;;;;;19.34;43.27;101582.75;2060281;28;1909;-67
2024/01/07 05:07:04;;;;;;;;;;;;;;;19.34;43.31;101577.00;2058109;28;2466;-67
2024/01/07 05:08:06;;;;;;;;;;;;;;;19.34;43.38;101582.75;2056065;28;2164;-67
2024/01/07 05:09:07;;;;;;;;;;;;;;;19.34;43.36;101582.75;2057682;28;2289;-67
2024/01/07 05:10:09;;;;;;;;;;;;;;;19.34;43.39;101583.50;2062305;28;1690;-67
2024/01/07 05:11:11;;;;;;;;;;;;;;;19.35;43.21;101584.25;2057852;28;1921;-67
2024/01/07 05:12:12;;;;;;;;;;;;;;;19.35;43.27;101589.97;2059318;28;2311;-67
2024/01/07 05:13:14;;;;;;;;;;;;;;;19.35;43.30;101578.50;2059224;28;2459;-67
2024/01/07 05:14:15;;;;;;;;;;;;;;;19.36;43.35;101591.50;2058922;28;2105;-67
2024/01/07 05:15:17;;;;;;;;;;;;;;;19.35;43.32;101584.97;2057854;28;2093;-68
2024/01/07 05:16:19;;;;;;;;;;;;;;;19.36;43.35;101591.50;2055533;28;2467;-68
2024/01/07 05:17:20;;;;;;;;;;;;;;;19.34;43.29;101594.97;2058470;28;2289;-67
2024/01/07 05:18:22;;;;;;;;;;;;;;;19.36;43.32;101585.75;2062708;28;2028;-67
2024/01/07 05:19:24;;;;;;;;;;;;;;;19.35;43.29;101587.84;2060595;28;2180;-67
2024/01/07 05:20:25;;;;;;;;;;;;;;;19.37;43.32;101587.25;2062020;28;1691;-67
2024/01/07 05:21:27;;;;;;;;;;;;;;;19.38;43.22;101600.97;2059185;28;1745;-67